DBBB

Cadjehoun Airport

Cotonou, Benin
METAR DBBB 152000Z 22012KT 9999 SCT012 26/24 Q1013 NOSIG
Observed Flight Rules
Jul-15 @ 20:00 UTC (52 minutes ago) Visual Flight Rules
Wind Visibility Clouds
220° at 12 knots 10,000+ meters
  • Scattered at 1,200' AGL
Temperatures Readings
Current 26°C / 79°F
Dewpoint 24°C / 75°F
Humidity 89%
Altimeter 29.91" Hg
Pressure 1013 hPa
Elevation 9
METAR DBBB 152000Z 22012KT 9999 SCT012 26/24 Q1013 NOSIG
Observed Flight Rules
Jul-15 @ 20:00 UTC
(52 minutes ago)
VFR
Wind Visibility
220° at 12 knots 10,000+ meters
Clouds
  • Scattered at 1,200' AGL
Temperature Dewpoint
26°C / 79°F 24°C / 75°F
Humidity Altimeter Pressure
89% 29.91" Hg 1013 hPa